Weather at Maillen UL

Public forecast

Using degrees Celsius for public forecast. Weather courtesy of forecast.io.

Closest aviation weather report (METAR) to Maillen UL

Closest report is Florennes Air Base, 13.4 nm (24.7 km) SW.

2024/05/25 16:55 (retrieved 16 minutes ago)

EBFS 251655Z AUTO 26006KT 9999 FEW160/// 19/09 Q1017 BLU

Closest aviation forecast (TAF) to Maillen UL

Forecast is more than 12 hours old.

Closest forecast is Florennes Air Base, 13.4 nm (24.7 km) SW.

2024/05/23 19:12 (retrieved 2 days ago)

TAF EBFS 231541Z 2319/2407 22008KT 9999 FEW035 PROB40 TEMPO 2319/2321 25010KT 5000 -SHRA SCT030TCU SCT050 PROB30 TEMPO 2319/2321 25008G18KT 2000 SHRA -TSRA BKN012CB BKN030 BECMG 2323/2401 3000 BR SCT003 PROB40 TEMPO 2400/2407 0500 FG SCT001